sensor_id;sensor_type;location;lat;lon;timestamp;P1;durP1;ratioP1;P2;durP2;ratioP2
18290;SDS011;9271;48.590;8.866;2023-06-04T00:00:26;6.97;;;5.23;;
18290;SDS011;9271;48.590;8.866;2023-06-04T00:02:52;6.20;;;5.60;;
18290;SDS011;9271;48.590;8.866;2023-06-04T00:05:19;6.27;;;5.70;;
18290;SDS011;9271;48.590;8.866;2023-06-04T00:07:50;6.40;;;5.80;;
18290;SDS011;9271;48.590;8.866;2023-06-04T00:10:18;6.47;;;5.87;;
18290;SDS011;9271;48.590;8.866;2023-06-04T00:12:45;8.23;;;6.03;;
18290;SDS011;9271;48.590;8.866;2023-06-04T00:15:12;7.13;;;5.80;;
18290;SDS011;9271;48.590;8.866;2023-06-04T00:17:40;6.20;;;5.60;;
18290;SDS011;9271;48.590;8.866;2023-06-04T00:20:07;7.97;;;5.90;;
18290;SDS011;9271;48.590;8.866;2023-06-04T00:22:34;7.87;;;5.93;;
18290;SDS011;9271;48.590;8.866;2023-06-04T00:25:01;8.43;;;5.50;;
18290;SDS011;9271;48.590;8.866;2023-06-04T00:27:29;6.03;;;5.43;;
18290;SDS011;9271;48.590;8.866;2023-06-04T00:29:56;10.13;;;5.93;;
18290;SDS011;9271;48.590;8.866;2023-06-04T00:32:23;8.40;;;6.10;;
18290;SDS011;9271;48.590;8.866;2023-06-04T00:34:53;6.57;;;5.77;;
18290;SDS011;9271;48.590;8.866;2023-06-04T00:37:23;7.93;;;5.73;;
18290;SDS011;9271;48.590;8.866;2023-06-04T00:39:50;6.17;;;5.40;;
18290;SDS011;9271;48.590;8.866;2023-06-04T00:42:17;6.73;;;6.13;;
18290;SDS011;9271;48.590;8.866;2023-06-04T00:44:45;6.97;;;5.90;;
18290;SDS011;9271;48.590;8.866;2023-06-04T00:47:12;9.43;;;5.87;;
18290;SDS011;9271;48.590;8.866;2023-06-04T00:49:40;10.23;;;5.80;;
18290;SDS011;9271;48.590;8.866;2023-06-04T00:52:07;6.70;;;5.83;;
18290;SDS011;9271;48.590;8.866;2023-06-04T00:54:35;6.43;;;5.83;;
18290;SDS011;9271;48.590;8.866;2023-06-04T00:57:03;6.77;;;5.47;;
18290;SDS011;9271;48.590;8.866;2023-06-04T00:59:30;6.40;;;5.80;;
18290;SDS011;9271;48.590;8.866;2023-06-04T01:02:00;6.67;;;5.90;;
18290;SDS011;9271;48.590;8.866;2023-06-04T01:04:32;8.83;;;6.20;;
18290;SDS011;9271;48.590;8.866;2023-06-04T01:07:04;7.50;;;5.90;;
18290;SDS011;9271;48.590;8.866;2023-06-04T01:09:37;6.60;;;5.90;;
18290;SDS011;9271;48.590;8.866;2023-06-04T01:12:05;7.90;;;6.13;;
18290;SDS011;9271;48.590;8.866;2023-06-04T01:14:33;6.30;;;5.67;;
18290;SDS011;9271;48.590;8.866;2023-06-04T01:17:02;6.83;;;6.13;;
18290;SDS011;9271;48.590;8.866;2023-06-04T01:19:42;8.40;;;6.20;;
18290;SDS011;9271;48.590;8.866;2023-06-04T01:22:29;6.27;;;5.67;;
18290;SDS011;9271;48.590;8.866;2023-06-04T01:25:04;8.83;;;6.00;;
18290;SDS011;9271;48.590;8.866;2023-06-04T01:27:36;7.97;;;6.27;;
18290;SDS011;9271;48.590;8.866;2023-06-04T01:30:05;7.83;;;6.57;;
18290;SDS011;9271;48.590;8.866;2023-06-04T01:32:37;7.67;;;6.17;;
18290;SDS011;9271;48.590;8.866;2023-06-04T01:35:07;9.03;;;5.77;;
18290;SDS011;9271;48.590;8.866;2023-06-04T01:37:34;7.47;;;5.90;;
18290;SDS011;9271;48.590;8.866;2023-06-04T01:40:01;6.90;;;5.90;;
18290;SDS011;9271;48.590;8.866;2023-06-04T01:42:29;6.50;;;5.47;;
18290;SDS011;9271;48.590;8.866;2023-06-04T01:44:55;6.60;;;6.00;;
18290;SDS011;9271;48.590;8.866;2023-06-04T01:47:22;6.80;;;6.20;;
18290;SDS011;9271;48.590;8.866;2023-06-04T01:49:50;6.23;;;5.63;;
18290;SDS011;9271;48.590;8.866;2023-06-04T01:52:16;7.47;;;5.80;;
18290;SDS011;9271;48.590;8.866;2023-06-04T01:54:46;6.80;;;6.10;;
18290;SDS011;9271;48.590;8.866;2023-06-04T01:57:13;7.50;;;6.10;;
18290;SDS011;9271;48.590;8.866;2023-06-04T01:59:40;7.13;;;6.13;;
18290;SDS011;9271;48.590;8.866;2023-06-04T02:02:07;6.97;;;6.10;;
18290;SDS011;9271;48.590;8.866;2023-06-04T02:04:33;6.90;;;5.77;;
18290;SDS011;9271;48.590;8.866;2023-06-04T02:07:02;8.07;;;6.20;;
18290;SDS011;9271;48.590;8.866;2023-06-04T02:09:29;7.13;;;6.00;;
18290;SDS011;9271;48.590;8.866;2023-06-04T02:11:56;7.33;;;6.63;;
18290;SDS011;9271;48.590;8.866;2023-06-04T02:14:23;8.03;;;6.07;;
18290;SDS011;9271;48.590;8.866;2023-06-04T02:16:49;10.77;;;6.30;;
18290;SDS011;9271;48.590;8.866;2023-06-04T02:19:16;7.87;;;6.60;;
18290;SDS011;9271;48.590;8.866;2023-06-04T02:21:44;7.60;;;6.00;;
18290;SDS011;9271;48.590;8.866;2023-06-04T02:24:12;8.83;;;6.00;;
18290;SDS011;9271;48.590;8.866;2023-06-04T02:26:38;7.07;;;6.33;;
18290;SDS011;9271;48.590;8.866;2023-06-04T02:29:05;7.83;;;6.63;;
18290;SDS011;9271;48.590;8.866;2023-06-04T02:31:32;7.20;;;6.37;;
18290;SDS011;9271;48.590;8.866;2023-06-04T02:33:58;6.63;;;5.93;;
18290;SDS011;9271;48.590;8.866;2023-06-04T02:36:25;8.70;;;6.30;;
18290;SDS011;9271;48.590;8.866;2023-06-04T02:38:52;7.13;;;6.43;;
18290;SDS011;9271;48.590;8.866;2023-06-04T02:41:20;7.03;;;6.30;;
18290;SDS011;9271;48.590;8.866;2023-06-04T02:43:46;6.43;;;5.53;;
18290;SDS011;9271;48.590;8.866;2023-06-04T02:46:13;7.70;;;6.13;;
18290;SDS011;9271;48.590;8.866;2023-06-04T02:48:40;7.90;;;6.07;;
18290;SDS011;9271;48.590;8.866;2023-06-04T02:51:07;7.87;;;6.50;;
18290;SDS011;9271;48.590;8.866;2023-06-04T02:53:35;6.67;;;6.03;;
18290;SDS011;9271;48.590;8.866;2023-06-04T02:56:01;10.70;;;6.00;;
18290;SDS011;9271;48.590;8.866;2023-06-04T02:58:29;6.37;;;5.67;;
18290;SDS011;9271;48.590;8.866;2023-06-04T03:00:56;11.13;;;6.40;;
18290;SDS011;9271;48.590;8.866;2023-06-04T03:03:23;7.30;;;5.57;;
18290;SDS011;9271;48.590;8.866;2023-06-04T03:05:49;6.90;;;6.00;;
18290;SDS011;9271;48.590;8.866;2023-06-04T03:08:17;6.70;;;5.80;;
18290;SDS011;9271;48.590;8.866;2023-06-04T03:10:44;6.30;;;5.70;;
18290;SDS011;9271;48.590;8.866;2023-06-04T03:13:10;6.40;;;5.60;;
18290;SDS011;9271;48.590;8.866;2023-06-04T03:15:38;7.73;;;6.40;;
18290;SDS011;9271;48.590;8.866;2023-06-04T03:18:05;7.20;;;5.87;;
18290;SDS011;9271;48.590;8.866;2023-06-04T03:20:32;6.17;;;5.57;;
18290;SDS011;9271;48.590;8.866;2023-06-04T03:23:03;8.40;;;5.90;;
18290;SDS011;9271;48.590;8.866;2023-06-04T03:25:29;6.70;;;6.00;;
18290;SDS011;9271;48.590;8.866;2023-06-04T03:27:56;6.30;;;5.70;;
18290;SDS011;9271;48.590;8.866;2023-06-04T03:30:23;6.80;;;6.20;;
18290;SDS011;9271;48.590;8.866;2023-06-04T03:32:51;5.97;;;5.33;;
18290;SDS011;9271;48.590;8.866;2023-06-04T03:35:17;6.67;;;5.80;;
18290;SDS011;9271;48.590;8.866;2023-06-04T03:37:44;7.30;;;6.20;;
18290;SDS011;9271;48.590;8.866;2023-06-04T03:40:11;6.60;;;5.63;;
18290;SDS011;9271;48.590;8.866;2023-06-04T03:42:38;6.13;;;5.43;;
18290;SDS011;9271;48.590;8.866;2023-06-04T03:45:05;6.73;;;5.93;;
18290;SDS011;9271;48.590;8.866;2023-06-04T03:47:33;8.27;;;6.10;;
18290;SDS011;9271;48.590;8.866;2023-06-04T03:50:01;7.63;;;5.70;;
18290;SDS011;9271;48.590;8.866;2023-06-04T03:52:27;7.40;;;5.70;;
18290;SDS011;9271;48.590;8.866;2023-06-04T03:54:54;6.47;;;5.70;;
18290;SDS011;9271;48.590;8.866;2023-06-04T03:57:21;5.93;;;5.33;;
18290;SDS011;9271;48.590;8.866;2023-06-04T03:59:48;6.30;;;5.70;;
18290;SDS011;9271;48.590;8.866;2023-06-04T04:02:15;6.33;;;5.73;;
18290;SDS011;9271;48.590;8.866;2023-06-04T04:04:43;6.13;;;5.40;;
18290;SDS011;9271;48.590;8.866;2023-06-04T04:07:11;6.47;;;5.63;;
18290;SDS011;9271;48.590;8.866;2023-06-04T04:09:37;6.10;;;5.50;;
18290;SDS011;9271;48.590;8.866;2023-06-04T04:12:05;9.93;;;5.57;;
18290;SDS011;9271;48.590;8.866;2023-06-04T04:14:32;6.10;;;5.30;;
18290;SDS011;9271;48.590;8.866;2023-06-04T04:16:58;6.20;;;5.60;;
18290;SDS011;9271;48.590;8.866;2023-06-04T04:19:25;6.83;;;5.47;;
18290;SDS011;9271;48.590;8.866;2023-06-04T04:21:53;5.73;;;5.13;;
18290;SDS011;9271;48.590;8.866;2023-06-04T04:24:24;7.60;;;5.50;;
18290;SDS011;9271;48.590;8.866;2023-06-04T04:26:52;5.47;;;5.07;;
18290;SDS011;9271;48.590;8.866;2023-06-04T04:29:19;7.27;;;5.30;;
18290;SDS011;9271;48.590;8.866;2023-06-04T04:31:47;6.70;;;5.47;;
18290;SDS011;9271;48.590;8.866;2023-06-04T04:34:14;5.83;;;5.30;;
18290;SDS011;9271;48.590;8.866;2023-06-04T04:36:41;5.60;;;4.90;;
18290;SDS011;9271;48.590;8.866;2023-06-04T04:39:09;5.90;;;5.27;;
18290;SDS011;9271;48.590;8.866;2023-06-04T04:41:37;5.80;;;5.20;;
18290;SDS011;9271;48.590;8.866;2023-06-04T04:44:04;6.33;;;5.00;;
18290;SDS011;9271;48.590;8.866;2023-06-04T04:46:31;5.57;;;4.87;;
18290;SDS011;9271;48.590;8.866;2023-06-04T04:48:58;10.43;;;5.60;;
18290;SDS011;9271;48.590;8.866;2023-06-04T04:51:25;5.70;;;5.20;;
18290;SDS011;9271;48.590;8.866;2023-06-04T04:53:51;7.30;;;5.53;;
18290;SDS011;9271;48.590;8.866;2023-06-04T04:56:19;7.80;;;5.20;;
18290;SDS011;9271;48.590;8.866;2023-06-04T04:58:48;5.37;;;4.83;;
18290;SDS011;9271;48.590;8.866;2023-06-04T05:01:15;6.73;;;4.83;;
18290;SDS011;9271;48.590;8.866;2023-06-04T05:03:42;7.70;;;4.87;;
18290;SDS011;9271;48.590;8.866;2023-06-04T05:06:09;4.90;;;4.47;;
18290;SDS011;9271;48.590;8.866;2023-06-04T05:08:36;5.30;;;4.80;;
18290;SDS011;9271;48.590;8.866;2023-06-04T05:11:03;8.07;;;4.73;;
18290;SDS011;9271;48.590;8.866;2023-06-04T05:13:29;7.63;;;4.53;;
18290;SDS011;9271;48.590;8.866;2023-06-04T05:15:57;4.93;;;4.53;;
18290;SDS011;9271;48.590;8.866;2023-06-04T05:18:24;6.20;;;4.87;;
18290;SDS011;9271;48.590;8.866;2023-06-04T05:20:53;4.97;;;4.33;;
18290;SDS011;9271;48.590;8.866;2023-06-04T05:23:20;4.73;;;4.33;;
18290;SDS011;9271;48.590;8.866;2023-06-04T05:25:47;7.70;;;4.93;;
18290;SDS011;9271;48.590;8.866;2023-06-04T05:28:14;5.00;;;4.50;;
18290;SDS011;9271;48.590;8.866;2023-06-04T05:30:40;5.13;;;4.60;;
18290;SDS011;9271;48.590;8.866;2023-06-04T05:33:10;5.13;;;4.50;;
18290;SDS011;9271;48.590;8.866;2023-06-04T05:35:42;6.53;;;4.87;;
18290;SDS011;9271;48.590;8.866;2023-06-04T05:38:09;7.30;;;4.60;;
18290;SDS011;9271;48.590;8.866;2023-06-04T05:40:42;5.33;;;4.83;;
18290;SDS011;9271;48.590;8.866;2023-06-04T05:43:08;6.37;;;4.53;;
18290;SDS011;9271;48.590;8.866;2023-06-04T05:45:35;4.83;;;4.37;;
18290;SDS011;9271;48.590;8.866;2023-06-04T05:48:02;4.57;;;4.10;;
18290;SDS011;9271;48.590;8.866;2023-06-04T05:50:30;5.00;;;3.93;;
18290;SDS011;9271;48.590;8.866;2023-06-04T05:52:57;5.17;;;4.43;;
18290;SDS011;9271;48.590;8.866;2023-06-04T05:55:24;5.30;;;4.00;;
18290;SDS011;9271;48.590;8.866;2023-06-04T05:57:50;4.67;;;4.27;;
18290;SDS011;9271;48.590;8.866;2023-06-04T06:00:17;5.93;;;4.40;;
18290;SDS011;9271;48.590;8.866;2023-06-04T06:02:44;4.93;;;4.30;;
18290;SDS011;9271;48.590;8.866;2023-06-04T06:05:14;4.30;;;3.60;;
18290;SDS011;9271;48.590;8.866;2023-06-04T06:07:42;5.63;;;4.23;;
18290;SDS011;9271;48.590;8.866;2023-06-04T06:10:09;5.63;;;3.90;;
18290;SDS011;9271;48.590;8.866;2023-06-04T06:12:38;4.47;;;4.03;;
18290;SDS011;9271;48.590;8.866;2023-06-04T06:15:06;4.27;;;3.87;;
18290;SDS011;9271;48.590;8.866;2023-06-04T06:17:33;4.40;;;4.00;;
18290;SDS011;9271;48.590;8.866;2023-06-04T06:20:00;4.17;;;3.80;;
18290;SDS011;9271;48.590;8.866;2023-06-04T06:22:30;5.40;;;4.20;;
18290;SDS011;9271;48.590;8.866;2023-06-04T06:24:58;5.50;;;3.50;;
18290;SDS011;9271;48.590;8.866;2023-06-04T06:27:25;5.13;;;4.13;;
18290;SDS011;9271;48.590;8.866;2023-06-04T06:29:52;4.10;;;3.53;;
18290;SDS011;9271;48.590;8.866;2023-06-04T06:32:18;6.30;;;3.73;;
18290;SDS011;9271;48.590;8.866;2023-06-04T06:34:45;5.77;;;3.67;;
18290;SDS011;9271;48.590;8.866;2023-06-04T06:37:12;4.07;;;3.60;;
18290;SDS011;9271;48.590;8.866;2023-06-04T06:39:39;3.60;;;3.30;;
18290;SDS011;9271;48.590;8.866;2023-06-04T06:42:07;5.33;;;3.70;;
18290;SDS011;9271;48.590;8.866;2023-06-04T06:44:34;3.90;;;3.50;;
18290;SDS011;9271;48.590;8.866;2023-06-04T06:47:00;5.50;;;3.93;;
18290;SDS011;9271;48.590;8.866;2023-06-04T06:49:27;3.87;;;3.57;;
18290;SDS011;9271;48.590;8.866;2023-06-04T06:51:53;5.20;;;3.67;;
18290;SDS011;9271;48.590;8.866;2023-06-04T06:54:20;4.40;;;4.00;;
18290;SDS011;9271;48.590;8.866;2023-06-04T06:56:47;5.50;;;3.90;;
18290;SDS011;9271;48.590;8.866;2023-06-04T06:59:15;4.07;;;3.40;;
18290;SDS011;9271;48.590;8.866;2023-06-04T07:01:42;6.70;;;4.17;;
18290;SDS011;9271;48.590;8.866;2023-06-04T07:04:09;4.27;;;3.43;;
18290;SDS011;9271;48.590;8.866;2023-06-04T07:06:35;8.07;;;3.60;;
18290;SDS011;9271;48.590;8.866;2023-06-04T07:09:02;4.03;;;3.47;;
18290;SDS011;9271;48.590;8.866;2023-06-04T07:11:29;3.60;;;3.30;;
18290;SDS011;9271;48.590;8.866;2023-06-04T07:13:55;5.27;;;3.53;;
18290;SDS011;9271;48.590;8.866;2023-06-04T07:16:23;3.67;;;3.23;;
18290;SDS011;9271;48.590;8.866;2023-06-04T07:18:50;5.27;;;3.57;;
18290;SDS011;9271;48.590;8.866;2023-06-04T07:21:17;5.20;;;3.50;;
18290;SDS011;9271;48.590;8.866;2023-06-04T07:23:44;5.53;;;3.47;;
18290;SDS011;9271;48.590;8.866;2023-06-04T07:26:14;5.00;;;3.47;;
18290;SDS011;9271;48.590;8.866;2023-06-04T07:28:41;4.77;;;3.37;;
18290;SDS011;9271;48.590;8.866;2023-06-04T07:31:08;4.50;;;3.30;;
18290;SDS011;9271;48.590;8.866;2023-06-04T07:33:36;8.63;;;3.70;;
18290;SDS011;9271;48.590;8.866;2023-06-04T07:36:08;3.70;;;2.87;;
18290;SDS011;9271;48.590;8.866;2023-06-04T07:38:35;5.10;;;3.37;;
18290;SDS011;9271;48.590;8.866;2023-06-04T07:41:01;3.80;;;3.00;;
18290;SDS011;9271;48.590;8.866;2023-06-04T07:43:28;3.90;;;3.00;;
18290;SDS011;9271;48.590;8.866;2023-06-04T07:45:57;5.20;;;3.43;;
18290;SDS011;9271;48.590;8.866;2023-06-04T07:48:24;6.87;;;3.47;;
18290;SDS011;9271;48.590;8.866;2023-06-04T07:50:56;5.57;;;3.90;;
18290;SDS011;9271;48.590;8.866;2023-06-04T07:53:23;6.93;;;3.43;;
18290;SDS011;9271;48.590;8.866;2023-06-04T07:55:50;4.07;;;3.40;;
18290;SDS011;9271;48.590;8.866;2023-06-04T07:58:17;4.80;;;3.10;;
18290;SDS011;9271;48.590;8.866;2023-06-04T08:00:44;3.25;;;3.00;;
18290;SDS011;9271;48.590;8.866;2023-06-04T08:03:12;3.78;;;3.10;;
18290;SDS011;9271;48.590;8.866;2023-06-04T08:05:40;3.95;;;3.20;;
18290;SDS011;9271;48.590;8.866;2023-06-04T08:08:08;3.33;;;2.95;;
18290;SDS011;9271;48.590;8.866;2023-06-04T08:10:34;5.07;;;3.15;;
18290;SDS011;9271;48.590;8.866;2023-06-04T08:13:01;3.30;;;3.00;;
18290;SDS011;9271;48.590;8.866;2023-06-04T08:15:28;5.88;;;2.90;;
18290;SDS011;9271;48.590;8.866;2023-06-04T08:17:54;4.40;;;2.90;;
18290;SDS011;9271;48.590;8.866;2023-06-04T08:20:21;4.65;;;3.00;;
18290;SDS011;9271;48.590;8.866;2023-06-04T08:22:48;5.00;;;2.97;;
18290;SDS011;9271;48.590;8.866;2023-06-04T08:25:16;5.00;;;3.28;;
18290;SDS011;9271;48.590;8.866;2023-06-04T08:27:43;4.25;;;2.78;;
18290;SDS011;9271;48.590;8.866;2023-06-04T08:30:10;4.55;;;2.90;;
18290;SDS011;9271;48.590;8.866;2023-06-04T08:32:37;3.53;;;2.70;;
18290;SDS011;9271;48.590;8.866;2023-06-04T08:35:05;2.88;;;2.50;;
18290;SDS011;9271;48.590;8.866;2023-06-04T08:37:33;3.33;;;3.00;;
18290;SDS011;9271;48.590;8.866;2023-06-04T08:40:00;3.63;;;2.85;;
18290;SDS011;9271;48.590;8.866;2023-06-04T08:42:29;6.00;;;3.15;;
18290;SDS011;9271;48.590;8.866;2023-06-04T08:44:56;4.63;;;3.00;;
18290;SDS011;9271;48.590;8.866;2023-06-04T08:47:24;3.40;;;2.88;;
18290;SDS011;9271;48.590;8.866;2023-06-04T08:49:52;2.92;;;2.72;;
18290;SDS011;9271;48.590;8.866;2023-06-04T08:52:21;3.67;;;3.10;;
18290;SDS011;9271;48.590;8.866;2023-06-04T08:54:48;4.70;;;3.10;;
18290;SDS011;9271;48.590;8.866;2023-06-04T08:57:16;3.50;;;3.20;;
18290;SDS011;9271;48.590;8.866;2023-06-04T08:59:46;3.30;;;3.00;;
18290;SDS011;9271;48.590;8.866;2023-06-04T09:02:13;4.00;;;3.17;;
18290;SDS011;9271;48.590;8.866;2023-06-04T09:04:40;5.07;;;3.40;;
18290;SDS011;9271;48.590;8.866;2023-06-04T09:07:08;3.10;;;2.83;;
18290;SDS011;9271;48.590;8.866;2023-06-04T09:09:39;3.50;;;2.75;;
18290;SDS011;9271;48.590;8.866;2023-06-04T09:12:08;4.00;;;2.70;;
18290;SDS011;9271;48.590;8.866;2023-06-04T09:14:36;5.03;;;2.92;;
18290;SDS011;9271;48.590;8.866;2023-06-04T09:17:04;3.95;;;2.88;;
18290;SDS011;9271;48.590;8.866;2023-06-04T09:19:31;4.70;;;2.97;;
18290;SDS011;9271;48.590;8.866;2023-06-04T09:21:58;4.88;;;2.85;;
18290;SDS011;9271;48.590;8.866;2023-06-04T09:24:37;3.55;;;2.70;;
18290;SDS011;9271;48.590;8.866;2023-06-04T09:27:09;4.88;;;3.00;;
18290;SDS011;9271;48.590;8.866;2023-06-04T09:29:37;7.32;;;2.97;;
18290;SDS011;9271;48.590;8.866;2023-06-04T09:32:05;5.75;;;3.20;;
18290;SDS011;9271;48.590;8.866;2023-06-04T09:34:32;3.65;;;2.80;;
18290;SDS011;9271;48.590;8.866;2023-06-04T09:36:58;5.63;;;2.80;;
18290;SDS011;9271;48.590;8.866;2023-06-04T09:39:25;4.28;;;2.97;;
18290;SDS011;9271;48.590;8.866;2023-06-04T09:41:58;3.20;;;2.92;;
18290;SDS011;9271;48.590;8.866;2023-06-04T09:44:26;4.07;;;3.35;;
18290;SDS011;9271;48.590;8.866;2023-06-04T09:46:53;4.53;;;3.03;;
18290;SDS011;9271;48.590;8.866;2023-06-04T09:49:22;3.53;;;3.22;;
18290;SDS011;9271;48.590;8.866;2023-06-04T09:51:49;3.83;;;2.85;;
18290;SDS011;9271;48.590;8.866;2023-06-04T09:54:16;3.90;;;3.05;;
18290;SDS011;9271;48.590;8.866;2023-06-04T09:56:43;3.03;;;2.80;;
18290;SDS011;9271;48.590;8.866;2023-06-04T09:59:10;5.53;;;3.42;;
18290;SDS011;9271;48.590;8.866;2023-06-04T10:01:39;5.05;;;3.00;;
18290;SDS011;9271;48.590;8.866;2023-06-04T10:04:07;3.53;;;3.22;;
18290;SDS011;9271;48.590;8.866;2023-06-04T10:06:38;3.50;;;3.20;;
18290;SDS011;9271;48.590;8.866;2023-06-04T10:09:06;4.07;;;2.85;;
18290;SDS011;9271;48.590;8.866;2023-06-04T10:11:34;4.65;;;3.20;;
18290;SDS011;9271;48.590;8.866;2023-06-04T10:14:03;5.78;;;2.90;;
18290;SDS011;9271;48.590;8.866;2023-06-04T10:16:36;3.15;;;2.78;;
18290;SDS011;9271;48.590;8.866;2023-06-04T10:19:04;5.65;;;3.05;;
18290;SDS011;9271;48.590;8.866;2023-06-04T10:21:34;3.38;;;2.90;;
18290;SDS011;9271;48.590;8.866;2023-06-04T10:24:03;6.40;;;3.22;;
18290;SDS011;9271;48.590;8.866;2023-06-04T10:26:30;3.55;;;3.25;;
18290;SDS011;9271;48.590;8.866;2023-06-04T10:29:00;4.43;;;3.30;;
18290;SDS011;9271;48.590;8.866;2023-06-04T10:31:27;3.83;;;3.42;;
18290;SDS011;9271;48.590;8.866;2023-06-04T10:33:54;3.33;;;3.00;;
18290;SDS011;9271;48.590;8.866;2023-06-04T10:36:22;3.40;;;3.08;;
18290;SDS011;9271;48.590;8.866;2023-06-04T10:38:51;5.75;;;2.85;;
18290;SDS011;9271;48.590;8.866;2023-06-04T10:41:20;6.20;;;3.55;;
18290;SDS011;9271;48.590;8.866;2023-06-04T10:43:48;6.43;;;3.17;;
18290;SDS011;9271;48.590;8.866;2023-06-04T10:46:16;11.68;;;3.30;;
18290;SDS011;9271;48.590;8.866;2023-06-04T10:48:47;3.53;;;2.95;;
18290;SDS011;9271;48.590;8.866;2023-06-04T10:51:15;3.50;;;3.08;;
18290;SDS011;9271;48.590;8.866;2023-06-04T10:53:42;3.90;;;3.50;;
18290;SDS011;9271;48.590;8.866;2023-06-04T10:56:09;3.78;;;3.35;;
18290;SDS011;9271;48.590;8.866;2023-06-04T10:58:37;6.22;;;3.30;;
18290;SDS011;9271;48.590;8.866;2023-06-04T11:01:04;5.57;;;3.20;;
18290;SDS011;9271;48.590;8.866;2023-06-04T11:03:37;3.47;;;3.17;;
18290;SDS011;9271;48.590;8.866;2023-06-04T11:06:14;3.40;;;3.10;;
18290;SDS011;9271;48.590;8.866;2023-06-04T11:08:41;6.07;;;3.10;;
18290;SDS011;9271;48.590;8.866;2023-06-04T11:11:10;4.30;;;3.42;;
18290;SDS011;9271;48.590;8.866;2023-06-04T11:13:39;3.40;;;3.10;;
18290;SDS011;9271;48.590;8.866;2023-06-04T11:16:16;3.28;;;2.90;;
18290;SDS011;9271;48.590;8.866;2023-06-04T11:18:43;3.85;;;2.90;;
18290;SDS011;9271;48.590;8.866;2023-06-04T11:21:10;3.60;;;3.30;;
18290;SDS011;9271;48.590;8.866;2023-06-04T11:23:39;4.82;;;3.20;;
18290;SDS011;9271;48.590;8.866;2023-06-04T11:26:06;3.50;;;3.05;;
18290;SDS011;9271;48.590;8.866;2023-06-04T11:28:33;3.67;;;3.10;;
18290;SDS011;9271;48.590;8.866;2023-06-04T11:31:01;4.68;;;3.08;;
18290;SDS011;9271;48.590;8.866;2023-06-04T11:33:30;4.10;;;3.35;;
18290;SDS011;9271;48.590;8.866;2023-06-04T11:36:07;3.95;;;3.10;;
18290;SDS011;9271;48.590;8.866;2023-06-04T11:38:34;5.15;;;3.30;;
18290;SDS011;9271;48.590;8.866;2023-06-04T11:41:01;4.00;;;3.60;;
18290;SDS011;9271;48.590;8.866;2023-06-04T11:43:30;3.78;;;3.47;;
18290;SDS011;9271;48.590;8.866;2023-06-04T11:45:58;3.28;;;2.97;;
18290;SDS011;9271;48.590;8.866;2023-06-04T11:48:26;3.65;;;2.88;;
18290;SDS011;9271;48.590;8.866;2023-06-04T11:50:55;4.47;;;2.97;;
18290;SDS011;9271;48.590;8.866;2023-06-04T11:53:22;5.25;;;3.75;;
18290;SDS011;9271;48.590;8.866;2023-06-04T11:55:49;4.28;;;3.78;;
18290;SDS011;9271;48.590;8.866;2023-06-04T11:58:15;4.20;;;3.33;;
18290;SDS011;9271;48.590;8.866;2023-06-04T12:00:42;4.25;;;3.65;;
18290;SDS011;9271;48.590;8.866;2023-06-04T12:03:09;6.43;;;3.70;;
18290;SDS011;9271;48.590;8.866;2023-06-04T12:05:37;6.28;;;3.78;;
18290;SDS011;9271;48.590;8.866;2023-06-04T12:08:04;5.53;;;3.60;;
18290;SDS011;9271;48.590;8.866;2023-06-04T12:10:36;4.03;;;3.67;;
18290;SDS011;9271;48.590;8.866;2023-06-04T12:13:04;5.35;;;3.42;;
18290;SDS011;9271;48.590;8.866;2023-06-04T12:15:30;4.90;;;3.55;;
18290;SDS011;9271;48.590;8.866;2023-06-04T12:17:57;4.10;;;3.53;;
18290;SDS011;9271;48.590;8.866;2023-06-04T12:20:32;3.90;;;3.53;;
18290;SDS011;9271;48.590;8.866;2023-06-04T12:23:00;3.38;;;3.05;;
18290;SDS011;9271;48.590;8.866;2023-06-04T12:25:28;6.03;;;3.50;;
18290;SDS011;9271;48.590;8.866;2023-06-04T12:27:55;3.83;;;3.38;;
18290;SDS011;9271;48.590;8.866;2023-06-04T12:30:22;3.70;;;3.08;;
18290;SDS011;9271;48.590;8.866;2023-06-04T12:32:49;4.78;;;3.30;;
18290;SDS011;9271;48.590;8.866;2023-06-04T12:35:16;3.75;;;3.45;;
18290;SDS011;9271;48.590;8.866;2023-06-04T12:37:43;3.42;;;3.13;;
18290;SDS011;9271;48.590;8.866;2023-06-04T12:40:11;4.10;;;3.13;;
18290;SDS011;9271;48.590;8.866;2023-06-04T12:42:38;4.53;;;3.08;;
18290;SDS011;9271;48.590;8.866;2023-06-04T12:45:05;4.22;;;3.25;;
18290;SDS011;9271;48.590;8.866;2023-06-04T12:47:35;3.50;;;3.20;;
18290;SDS011;9271;48.590;8.866;2023-06-04T12:50:01;4.05;;;3.67;;
18290;SDS011;9271;48.590;8.866;2023-06-04T12:52:28;3.80;;;3.45;;
18290;SDS011;9271;48.590;8.866;2023-06-04T12:54:55;3.72;;;3.20;;
18290;SDS011;9271;48.590;8.866;2023-06-04T12:57:23;6.38;;;3.42;;
18290;SDS011;9271;48.590;8.866;2023-06-04T12:59:50;3.38;;;3.05;;
18290;SDS011;9271;48.590;8.866;2023-06-04T13:02:16;4.70;;;3.30;;
18290;SDS011;9271;48.590;8.866;2023-06-04T13:04:43;4.05;;;3.03;;
18290;SDS011;9271;48.590;8.866;2023-06-04T13:07:11;3.45;;;3.10;;
18290;SDS011;9271;48.590;8.866;2023-06-04T13:09:38;3.60;;;3.10;;
18290;SDS011;9271;48.590;8.866;2023-06-04T13:12:05;3.17;;;2.90;;
18290;SDS011;9271;48.590;8.866;2023-06-04T13:14:35;5.40;;;3.22;;
18290;SDS011;9271;48.590;8.866;2023-06-04T13:17:02;3.75;;;3.08;;
18290;SDS011;9271;48.590;8.866;2023-06-04T13:19:29;4.55;;;3.40;;
18290;SDS011;9271;48.590;8.866;2023-06-04T13:21:55;4.78;;;3.20;;
18290;SDS011;9271;48.590;8.866;2023-06-04T13:24:23;4.20;;;3.10;;
18290;SDS011;9271;48.590;8.866;2023-06-04T13:26:50;2.90;;;2.70;;
18290;SDS011;9271;48.590;8.866;2023-06-04T13:29:17;2.92;;;2.72;;
18290;SDS011;9271;48.590;8.866;2023-06-04T13:31:48;4.47;;;3.30;;
18290;SDS011;9271;48.590;8.866;2023-06-04T13:34:17;4.60;;;3.10;;
18290;SDS011;9271;48.590;8.866;2023-06-04T13:36:44;3.72;;;3.13;;
18290;SDS011;9271;48.590;8.866;2023-06-04T13:39:11;3.50;;;3.20;;
18290;SDS011;9271;48.590;8.866;2023-06-04T13:41:38;3.70;;;3.33;;
18290;SDS011;9271;48.590;8.866;2023-06-04T13:44:05;3.75;;;3.30;;
18290;SDS011;9271;48.590;8.866;2023-06-04T13:46:33;3.70;;;2.90;;
18290;SDS011;9271;48.590;8.866;2023-06-04T13:49:04;5.93;;;3.35;;
18290;SDS011;9271;48.590;8.866;2023-06-04T13:51:31;5.35;;;3.58;;
18290;SDS011;9271;48.590;8.866;2023-06-04T13:53:58;6.55;;;3.50;;
18290;SDS011;9271;48.590;8.866;2023-06-04T13:56:25;4.28;;;3.42;;
18290;SDS011;9271;48.590;8.866;2023-06-04T13:58:53;3.97;;;3.25;;
18290;SDS011;9271;48.590;8.866;2023-06-04T14:01:20;4.28;;;3.88;;
18290;SDS011;9271;48.590;8.866;2023-06-04T14:03:47;4.22;;;3.60;;
18290;SDS011;9271;48.590;8.866;2023-06-04T14:06:15;4.00;;;3.13;;
18290;SDS011;9271;48.590;8.866;2023-06-04T14:08:42;6.90;;;5.18;;
18290;SDS011;9271;48.590;8.866;2023-06-04T14:11:09;6.43;;;4.35;;
18290;SDS011;9271;48.590;8.866;2023-06-04T14:13:37;3.38;;;3.17;;
18290;SDS011;9271;48.590;8.866;2023-06-04T14:16:06;6.80;;;6.22;;
18290;SDS011;9271;48.590;8.866;2023-06-04T14:18:33;9.68;;;8.68;;
18290;SDS011;9271;48.590;8.866;2023-06-04T14:21:00;6.53;;;4.32;;
18290;SDS011;9271;48.590;8.866;2023-06-04T14:23:28;6.40;;;4.15;;
18290;SDS011;9271;48.590;8.866;2023-06-04T14:25:55;3.85;;;3.55;;
18290;SDS011;9271;48.590;8.866;2023-06-04T14:28:22;5.07;;;3.42;;
18290;SDS011;9271;48.590;8.866;2023-06-04T14:30:49;4.00;;;3.00;;
18290;SDS011;9271;48.590;8.866;2023-06-04T14:33:16;3.63;;;3.33;;
18290;SDS011;9271;48.590;8.866;2023-06-04T14:35:43;5.28;;;3.88;;
18290;SDS011;9271;48.590;8.866;2023-06-04T14:38:11;5.35;;;3.28;;
18290;SDS011;9271;48.590;8.866;2023-06-04T14:40:40;3.70;;;3.35;;
18290;SDS011;9271;48.590;8.866;2023-06-04T14:43:09;4.88;;;2.70;;
18290;SDS011;9271;48.590;8.866;2023-06-04T14:45:36;3.75;;;3.42;;
18290;SDS011;9271;48.590;8.866;2023-06-04T14:48:04;3.80;;;2.85;;
18290;SDS011;9271;48.590;8.866;2023-06-04T14:50:31;8.55;;;3.55;;
18290;SDS011;9271;48.590;8.866;2023-06-04T14:52:58;4.30;;;3.90;;
18290;SDS011;9271;48.590;8.866;2023-06-04T14:55:26;9.18;;;3.35;;
18290;SDS011;9271;48.590;8.866;2023-06-04T14:57:54;4.30;;;3.20;;
18290;SDS011;9271;48.590;8.866;2023-06-04T15:00:20;3.33;;;3.00;;
18290;SDS011;9271;48.590;8.866;2023-06-04T15:02:47;4.18;;;3.00;;